createdAt,value
2019-03-06T00:00:52.812Z,8.50
2019-03-06T00:03:01.814Z,6.77
2019-03-06T00:05:09.628Z,6.27
2019-03-06T00:07:17.823Z,7.77
2019-03-06T00:09:26.447Z,8.50
2019-03-06T00:11:34.235Z,8.03
2019-03-06T00:13:42.201Z,8.87
2019-03-06T00:15:50.331Z,7.17
2019-03-06T00:17:57.596Z,9.63
2019-03-06T00:20:06.922Z,6.53
2019-03-06T00:22:14.284Z,6.23
2019-03-06T00:24:21.279Z,7.17
2019-03-06T00:26:28.461Z,7.70
2019-03-06T00:28:36.347Z,5.60
2019-03-06T00:30:43.474Z,5.77
2019-03-06T00:32:50.548Z,7.57
2019-03-06T00:34:59.045Z,9.03
2019-03-06T00:37:06.657Z,8.27
2019-03-06T00:39:13.868Z,7.53
2019-03-06T00:41:22.709Z,8.50
2019-03-06T00:43:29.340Z,5.33
2019-03-06T00:45:37.531Z,8.60
2019-03-06T00:47:44.649Z,7.43
2019-03-06T00:49:51.891Z,7.63
2019-03-06T00:51:58.760Z,8.10
2019-03-06T00:54:05.820Z,8.80
2019-03-06T00:56:12.878Z,8.27
2019-03-06T00:58:19.994Z,7.50
2019-03-06T01:00:27.638Z,11.77
2019-03-06T01:02:34.698Z,7.40
2019-03-06T01:04:41.436Z,11.83
2019-03-06T01:06:48.922Z,8.50
2019-03-06T01:08:56.277Z,9.57
2019-03-06T01:11:03.189Z,8.23
2019-03-06T01:13:10.436Z,10.30
2019-03-06T01:15:22.008Z,12.47
2019-03-06T01:17:29.460Z,10.80
2019-03-06T01:19:36.231Z,10.23
2019-03-06T01:21:42.980Z,10.03
2019-03-06T01:23:50.395Z,10.87
2019-03-06T01:25:57.552Z,11.90
2019-03-06T01:28:05.092Z,8.67
2019-03-06T01:30:23.102Z,9.73
2019-03-06T01:32:30.061Z,13.37
2019-03-06T01:34:48.108Z,10.53
2019-03-06T01:37:08.774Z,13.73
2019-03-06T01:39:24.853Z,11.00
2019-03-06T01:41:36.282Z,11.57
2019-03-06T01:43:44.789Z,14.30
2019-03-06T01:45:51.717Z,11.90
2019-03-06T01:47:58.776Z,10.70
2019-03-06T01:50:10.155Z,12.30
2019-03-06T01:52:17.174Z,9.73
2019-03-06T01:54:24.939Z,15.47
2019-03-06T01:56:32.486Z,16.53
2019-03-06T01:58:40.045Z,12.40
2019-03-06T02:00:47.043Z,9.70
2019-03-06T02:02:54.348Z,10.73
2019-03-06T02:05:01.451Z,9.10
2019-03-06T02:07:11.518Z,11.47
2019-03-06T02:09:21.732Z,10.90
2019-03-06T02:11:28.846Z,8.90
2019-03-06T02:13:35.655Z,13.73
2019-03-06T02:15:42.916Z,14.93
2019-03-06T02:17:50.203Z,9.73
2019-03-06T02:19:58.189Z,12.20
2019-03-06T02:22:04.913Z,14.20
2019-03-06T02:24:11.833Z,11.73
2019-03-06T02:26:19.037Z,11.03
2019-03-06T02:28:26.196Z,12.63
2019-03-06T02:30:33.179Z,15.83
2019-03-06T02:32:39.983Z,12.47
2019-03-06T02:34:47.464Z,15.30
2019-03-06T02:36:55.519Z,13.03
2019-03-06T02:39:02.351Z,13.23
2019-03-06T02:41:11.055Z,10.37
2019-03-06T02:43:18.553Z,11.93
2019-03-06T02:45:25.688Z,15.63
2019-03-06T02:47:32.935Z,12.37
2019-03-06T02:49:39.612Z,11.83
2019-03-06T02:51:47.404Z,12.40
2019-03-06T02:53:54.317Z,13.37
2019-03-06T02:56:01.529Z,10.47
2019-03-06T02:58:19.444Z,15.53
2019-03-06T03:00:35.155Z,12.00
2019-03-06T03:02:47.185Z,14.40
2019-03-06T03:04:56.121Z,13.13
2019-03-06T03:07:04.672Z,12.67
2019-03-06T03:09:20.739Z,9.13
2019-03-06T03:11:27.809Z,13.67
2019-03-06T03:13:35.113Z,16.97
2019-03-06T03:15:42.047Z,15.57
2019-03-06T03:17:48.904Z,14.53
2019-03-06T03:19:56.200Z,12.53
2019-03-06T03:22:03.085Z,13.90
2019-03-06T03:24:10.592Z,11.60
2019-03-06T03:26:17.498Z,17.80
2019-03-06T03:28:24.432Z,16.90
2019-03-06T03:30:32.799Z,19.77
2019-03-06T03:32:39.617Z,13.90
2019-03-06T03:34:47.205Z,13.47
2019-03-06T03:36:54.314Z,21.20
2019-03-06T03:39:01.363Z,19.27
2019-03-06T03:41:09.523Z,15.97
2019-03-06T03:43:16.789Z,17.67
2019-03-06T03:45:24.514Z,12.33
2019-03-06T03:47:32.724Z,17.40
2019-03-06T03:49:42.537Z,19.93
2019-03-06T03:51:49.136Z,15.53
2019-03-06T03:53:56.302Z,14.47
2019-03-06T03:56:04.128Z,13.97
2019-03-06T03:58:11.107Z,17.83
2019-03-06T04:00:23.393Z,17.50
2019-03-06T04:02:30.584Z,16.13
2019-03-06T04:04:38.643Z,22.17
2019-03-06T04:06:45.917Z,15.90
2019-03-06T04:08:53.464Z,19.97
2019-03-06T04:11:01.223Z,22.80
2019-03-06T04:13:08.768Z,24.73
2019-03-06T04:15:17.789Z,19.97
2019-03-06T04:17:24.536Z,21.77
2019-03-06T04:19:31.595Z,19.20
2019-03-06T04:21:38.633Z,21.23
2019-03-06T04:23:46.345Z,21.00
2019-03-06T04:25:53.427Z,18.20
2019-03-06T04:28:00.540Z,19.87
2019-03-06T04:30:15.975Z,20.03
2019-03-06T04:32:22.740Z,17.27
2019-03-06T04:34:29.678Z,18.03
2019-03-06T04:36:36.577Z,18.00
2019-03-06T04:38:43.940Z,26.60
2019-03-06T04:40:51.111Z,18.47
2019-03-06T04:42:57.809Z,25.00
2019-03-06T04:45:06.037Z,23.57
2019-03-06T04:47:13.235Z,23.67
2019-03-06T04:49:20.288Z,28.20
2019-03-06T04:51:27.487Z,23.80
2019-03-06T04:53:36.128Z,14.57
2019-03-06T04:55:44.722Z,18.70
2019-03-06T04:57:52.051Z,20.63
2019-03-06T04:59:59.577Z,15.67
2019-03-06T05:02:08.556Z,10.40
2019-03-06T05:04:15.381Z,9.10
2019-03-06T05:06:21.901Z,8.93
2019-03-06T05:08:28.783Z,11.10
2019-03-06T05:10:35.852Z,15.47
2019-03-06T05:12:43.623Z,18.43
2019-03-06T05:14:50.558Z,10.53
2019-03-06T05:17:02.183Z,18.77
2019-03-06T05:19:11.266Z,13.47
2019-03-06T05:21:18.416Z,10.83
2019-03-06T05:23:25.399Z,11.37
2019-03-06T05:25:32.662Z,13.43
2019-03-06T05:27:39.786Z,13.53
2019-03-06T05:29:46.681Z,11.37
2019-03-06T05:32:26.625Z,16.93
2019-03-06T05:34:33.916Z,14.63
2019-03-06T05:37:21.697Z,11.43
2019-03-06T05:39:28.780Z,13.27
2019-03-06T05:41:36.231Z,10.40
2019-03-06T05:43:43.702Z,14.33
2019-03-06T05:45:50.802Z,16.67
2019-03-06T05:47:58.235Z,11.57
2019-03-06T05:50:06.988Z,8.77
2019-03-06T05:52:13.865Z,9.10
2019-03-06T05:54:21.429Z,11.37
2019-03-06T05:56:28.371Z,13.27
2019-03-06T05:58:35.683Z,14.53
2019-03-06T06:00:42.483Z,19.70
2019-03-06T06:02:49.366Z,12.90
2019-03-06T06:04:55.882Z,12.97
2019-03-06T06:07:02.927Z,14.97
2019-03-06T06:09:11.145Z,15.17
2019-03-06T06:11:18.899Z,11.27
2019-03-06T06:13:26.076Z,14.07
2019-03-06T06:15:32.905Z,7.97
2019-03-06T06:17:39.766Z,10.23
2019-03-06T06:19:46.489Z,17.07
2019-03-06T06:21:54.774Z,11.97
2019-03-06T06:24:03.926Z,11.67
2019-03-06T06:26:11.025Z,13.17
2019-03-06T06:28:19.415Z,12.90
2019-03-06T06:30:26.423Z,13.40
2019-03-06T06:32:33.476Z,15.00
2019-03-06T06:34:40.306Z,11.73
2019-03-06T06:36:47.505Z,13.80
2019-03-06T06:38:53.986Z,14.63
2019-03-06T06:41:01.351Z,13.27
2019-03-06T06:43:08.905Z,8.27
2019-03-06T06:45:19.113Z,13.57
2019-03-06T06:47:26.566Z,14.10
2019-03-06T06:49:33.436Z,13.63
2019-03-06T06:51:59.977Z,14.77
2019-03-06T06:54:29.049Z,15.37
2019-03-06T06:56:56.853Z,21.33
2019-03-06T06:59:16.625Z,15.80
2019-03-06T07:01:33.441Z,13.47
2019-03-06T07:04:32.813Z,11.87
2019-03-06T07:06:58.653Z,11.73
2019-03-06T07:09:07.166Z,13.37
2019-03-06T07:11:15.813Z,16.50
2019-03-06T07:13:30.216Z,16.40
2019-03-06T07:15:54.116Z,11.50
2019-03-06T07:18:12.896Z,16.03
2019-03-06T07:20:23.559Z,13.00
2019-03-06T07:22:35.215Z,13.57
2019-03-06T07:24:52.396Z,12.27
2019-03-06T07:27:08.396Z,13.97
2019-03-06T07:29:22.036Z,16.87
2019-03-06T07:31:40.904Z,16.13
2019-03-06T07:33:51.995Z,13.07
2019-03-06T07:36:06.463Z,14.13
2019-03-06T07:38:13.345Z,28.40
2019-03-06T07:40:23.076Z,19.57
2019-03-06T07:42:38.739Z,13.77
2019-03-06T07:45:28.406Z,15.03
2019-03-06T07:47:38.269Z,11.77
2019-03-06T07:49:48.226Z,15.60
2019-03-06T07:52:05.925Z,13.07
2019-03-06T07:54:28.163Z,15.93
2019-03-06T07:56:48.755Z,11.87
2019-03-06T07:58:57.533Z,24.00
2019-03-06T08:01:04.635Z,37.33
2019-03-06T08:03:11.878Z,15.03
2019-03-06T08:05:18.846Z,11.93
2019-03-06T08:07:25.776Z,12.60
2019-03-06T08:09:33.981Z,15.70
2019-03-06T08:11:42.795Z,19.60
2019-03-06T08:13:51.586Z,16.23
2019-03-06T08:16:03.195Z,17.17
2019-03-06T08:18:20.224Z,16.43
2019-03-06T08:20:27.263Z,16.60
2019-03-06T08:22:37.696Z,23.17
2019-03-06T08:24:46.523Z,17.33
2019-03-06T08:26:53.474Z,19.13
2019-03-06T08:29:00.767Z,18.77
2019-03-06T08:31:16.127Z,19.83
2019-03-06T08:33:22.946Z,15.63
2019-03-06T08:35:30.282Z,28.63
2019-03-06T08:37:37.976Z,22.83
2019-03-06T08:39:44.707Z,22.20
2019-03-06T08:41:52.064Z,16.23
2019-03-06T08:43:58.967Z,17.77
2019-03-06T08:46:17.866Z,292.87
2019-03-06T08:48:41.746Z,15.60
2019-03-06T08:51:05.443Z,22.60
2019-03-06T08:53:30.644Z,21.43
2019-03-06T08:55:39.306Z,17.27
2019-03-06T08:58:03.140Z,18.53
2019-03-06T09:00:20.016Z,21.90
2019-03-06T09:02:33.346Z,17.33
2019-03-06T09:04:58.353Z,17.37
2019-03-06T09:07:06.763Z,18.83
2019-03-06T09:09:26.556Z,18.20
2019-03-06T09:11:36.704Z,22.33
2019-03-06T09:14:03.857Z,22.07
2019-03-06T09:16:21.494Z,21.23
2019-03-06T09:18:46.487Z,19.80
2019-03-06T09:20:59.583Z,14.67
2019-03-06T09:23:24.455Z,16.30
2019-03-06T09:25:36.292Z,15.47
2019-03-06T09:27:46.337Z,16.30
2019-03-06T09:30:15.948Z,18.83
2019-03-06T09:32:21.874Z,15.07
2019-03-06T09:34:33.686Z,12.73
2019-03-06T09:36:52.326Z,9.07
2019-03-06T09:39:16.206Z,11.10
2019-03-06T09:41:24.464Z,15.20
2019-03-06T09:43:42.254Z,12.37
2019-03-06T09:46:08.476Z,12.50
2019-03-06T09:48:34.288Z,14.53
2019-03-06T09:50:46.296Z,14.37
2019-03-06T09:53:00.593Z,16.60
2019-03-06T09:55:12.116Z,12.33
2019-03-06T09:57:20.836Z,13.83
2019-03-06T09:59:30.256Z,15.23
2019-03-06T10:01:55.389Z,13.37
2019-03-06T10:04:10.033Z,11.50
2019-03-06T10:06:34.893Z,20.00
2019-03-06T10:08:46.301Z,8.97
2019-03-06T10:11:00.538Z,14.40
2019-03-06T10:13:11.817Z,10.27
2019-03-06T10:15:26.448Z,10.90
2019-03-06T10:17:41.897Z,9.97
2019-03-06T10:19:50.348Z,6.23
2019-03-06T10:21:59.141Z,8.63
2019-03-06T10:24:26.867Z,7.40
2019-03-06T10:26:34.088Z,7.97
2019-03-06T10:28:41.067Z,9.43
2019-03-06T10:30:48.310Z,14.97
2019-03-06T10:32:55.308Z,8.13
2019-03-06T10:35:03.649Z,12.60
2019-03-06T10:37:12.348Z,10.80
2019-03-06T10:39:19.268Z,17.77
2019-03-06T10:41:26.168Z,15.43
2019-03-06T10:43:34.238Z,10.90
2019-03-06T10:45:41.795Z,14.93
2019-03-06T10:47:49.195Z,14.63
2019-03-06T10:49:56.351Z,9.03
2019-03-06T10:52:03.628Z,9.57
2019-03-06T10:54:10.768Z,8.13
2019-03-06T10:56:17.961Z,12.70
2019-03-06T10:58:25.288Z,9.80
2019-03-06T11:00:35.083Z,11.27
2019-03-06T11:02:42.389Z,9.13
2019-03-06T11:04:54.144Z,6.57
2019-03-06T11:07:01.677Z,13.10
2019-03-06T11:09:11.322Z,6.97
2019-03-06T11:11:19.505Z,18.63
2019-03-06T11:13:26.474Z,12.80
2019-03-06T11:15:34.866Z,10.93
2019-03-06T11:17:42.385Z,13.30
2019-03-06T11:19:49.686Z,12.93
2019-03-06T11:21:56.776Z,10.07
2019-03-06T11:24:04.056Z,17.47
2019-03-06T11:26:11.235Z,11.00
2019-03-06T11:28:18.424Z,14.53
2019-03-06T11:30:41.712Z,10.53
2019-03-06T11:32:54.484Z,11.27
2019-03-06T11:34:59.169Z,11.70
2019-03-06T11:37:07.172Z,10.73
2019-03-06T11:39:14.895Z,11.87
2019-03-06T11:41:22.236Z,15.07
2019-03-06T11:43:29.572Z,16.50
2019-03-06T11:45:38.734Z,17.57
2019-03-06T11:47:45.883Z,12.27
2019-03-06T11:49:57.944Z,9.57
2019-03-06T11:52:06.548Z,14.30
2019-03-06T11:54:14.672Z,14.37
2019-03-06T11:56:24.181Z,13.67
2019-03-06T11:58:32.534Z,11.97
2019-03-06T12:00:46.435Z,12.90
2019-03-06T12:02:54.436Z,11.83
2019-03-06T12:05:02.196Z,13.20
2019-03-06T12:07:11.009Z,9.37
2019-03-06T12:09:29.957Z,12.87
2019-03-06T12:11:36.866Z,17.87
2019-03-06T12:13:45.522Z,18.80
2019-03-06T12:15:53.655Z,11.97
2019-03-06T12:18:00.997Z,14.57
2019-03-06T12:20:10.285Z,12.07
2019-03-06T12:22:17.563Z,20.40
2019-03-06T12:24:25.212Z,18.70
2019-03-06T12:26:32.855Z,14.13
2019-03-06T12:28:40.076Z,18.17
2019-03-06T12:30:47.193Z,13.23
2019-03-06T12:32:54.475Z,19.00
2019-03-06T12:35:02.356Z,18.63
2019-03-06T12:37:09.556Z,18.90
2019-03-06T12:39:19.093Z,21.10
2019-03-06T12:41:27.998Z,21.30
2019-03-06T12:43:35.102Z,24.97
2019-03-06T12:45:44.096Z,15.47
2019-03-06T12:47:58.365Z,18.60
2019-03-06T12:50:08.629Z,20.10
2019-03-06T12:52:15.863Z,17.03
2019-03-06T12:54:22.723Z,14.93
2019-03-06T12:56:31.645Z,18.10
2019-03-06T12:58:38.976Z,20.77
2019-03-06T13:00:45.975Z,23.40
2019-03-06T13:02:54.500Z,25.20
2019-03-06T13:05:01.243Z,22.97
2019-03-06T13:07:08.905Z,20.73
2019-03-06T13:09:22.037Z,20.57
2019-03-06T13:11:29.577Z,16.27
2019-03-06T13:13:38.406Z,21.13
2019-03-06T13:15:46.375Z,17.93
2019-03-06T13:17:53.854Z,18.07
2019-03-06T13:20:00.883Z,21.37
2019-03-06T13:22:11.374Z,24.07
2019-03-06T13:24:18.618Z,20.03
2019-03-06T13:26:25.432Z,18.40
2019-03-06T13:28:32.218Z,16.43
2019-03-06T13:30:39.418Z,21.27
2019-03-06T13:32:58.165Z,20.57
2019-03-06T13:35:07.856Z,25.00
2019-03-06T13:37:15.005Z,14.33
2019-03-06T13:39:21.886Z,11.77
2019-03-06T13:41:33.586Z,17.53
2019-03-06T13:43:41.094Z,14.13
2019-03-06T13:45:51.406Z,16.57
2019-03-06T13:47:58.658Z,13.90
2019-03-06T13:50:11.644Z,19.70
2019-03-06T13:52:19.498Z,19.33
2019-03-06T13:54:26.583Z,12.87
2019-03-06T13:56:38.475Z,16.43
2019-03-06T13:58:47.126Z,14.07
2019-03-06T14:00:55.032Z,16.37
2019-03-06T14:03:02.316Z,19.77
2019-03-06T14:05:10.357Z,15.50
2019-03-06T14:07:18.670Z,16.67
2019-03-06T14:09:26.749Z,15.57
2019-03-06T14:11:33.916Z,18.77
2019-03-06T14:13:41.550Z,16.77
2019-03-06T14:15:54.003Z,18.93
2019-03-06T14:17:59.392Z,17.80
2019-03-06T14:20:14.423Z,26.83
2019-03-06T14:22:21.691Z,21.27
2019-03-06T14:24:29.377Z,25.07
2019-03-06T14:26:37.079Z,19.83
2019-03-06T14:28:46.872Z,20.27
2019-03-06T14:30:54.680Z,30.20
2019-03-06T14:33:02.015Z,23.33
2019-03-06T14:35:09.671Z,27.13
2019-03-06T14:37:17.105Z,21.00
2019-03-06T14:39:29.065Z,20.70
2019-03-06T14:41:37.048Z,16.73
2019-03-06T14:43:44.428Z,18.33
2019-03-06T14:45:51.441Z,20.07
2019-03-06T14:47:58.609Z,29.60
2019-03-06T14:50:07.225Z,20.67
2019-03-06T14:52:14.640Z,24.60
2019-03-06T14:54:21.640Z,20.50
2019-03-06T14:56:28.856Z,56.73
2019-03-06T14:58:36.335Z,27.43
2019-03-06T15:00:43.874Z,40.23
2019-03-06T15:02:51.035Z,19.17
2019-03-06T15:04:58.742Z,18.50
2019-03-06T15:07:06.347Z,18.60
2019-03-06T15:09:28.290Z,19.37
2019-03-06T15:11:35.839Z,22.93
2019-03-06T15:13:44.507Z,19.67
2019-03-06T15:15:53.157Z,26.37
2019-03-06T15:18:00.344Z,25.53
2019-03-06T15:20:11.654Z,22.77
2019-03-06T15:22:18.962Z,23.47
2019-03-06T15:24:26.144Z,19.00
2019-03-06T15:26:33.678Z,18.80
2019-03-06T15:28:40.625Z,17.13
2019-03-06T15:30:47.746Z,19.70
2019-03-06T15:32:54.990Z,19.17
2019-03-06T15:35:02.391Z,18.93
2019-03-06T15:37:09.846Z,16.40
2019-03-06T15:39:29.462Z,18.33
2019-03-06T15:41:37.370Z,18.77
2019-03-06T15:43:44.763Z,15.97
2019-03-06T15:45:51.827Z,21.13
2019-03-06T15:47:59.577Z,19.77
2019-03-06T15:50:10.407Z,16.90
2019-03-06T15:52:18.574Z,23.43
2019-03-06T15:54:26.535Z,19.97
2019-03-06T15:56:34.074Z,18.37
2019-03-06T15:58:43.874Z,21.53
2019-03-06T16:00:52.142Z,19.90
2019-03-06T16:03:00.186Z,20.80
2019-03-06T16:05:11.149Z,17.03
2019-03-06T16:07:18.437Z,19.03
2019-03-06T16:09:25.640Z,21.70
2019-03-06T16:11:33.564Z,22.17
2019-03-06T16:13:41.341Z,23.77
2019-03-06T16:15:48.850Z,24.50
2019-03-06T16:17:59.672Z,28.40
2019-03-06T16:20:18.826Z,25.20
2019-03-06T16:22:25.703Z,22.97
2019-03-06T16:24:34.423Z,29.10
2019-03-06T16:26:42.121Z,25.07
2019-03-06T16:28:49.447Z,25.30
2019-03-06T16:30:56.732Z,23.67
2019-03-06T16:33:04.134Z,35.20
2019-03-06T16:35:11.672Z,40.93
2019-03-06T16:37:19.323Z,33.37
2019-03-06T16:39:27.222Z,34.73
2019-03-06T16:41:35.403Z,33.50
2019-03-06T16:43:43.087Z,33.53
2019-03-06T16:45:50.825Z,44.93
2019-03-06T16:47:58.084Z,40.13
2019-03-06T16:50:14.375Z,37.73
2019-03-06T16:52:19.214Z,37.87
2019-03-06T16:54:26.867Z,39.67
2019-03-06T16:56:35.753Z,44.17
2019-03-06T16:58:42.910Z,36.73
2019-03-06T17:00:52.297Z,33.13
2019-03-06T17:03:02.834Z,45.30
2019-03-06T17:05:11.484Z,65.13
2019-03-06T17:07:18.798Z,39.53
2019-03-06T17:09:26.156Z,36.70
2019-03-06T17:11:34.287Z,38.10
2019-03-06T17:13:41.957Z,32.20
2019-03-06T17:15:49.530Z,33.53
2019-03-06T17:17:57.427Z,209.67
2019-03-06T17:20:05.739Z,484.63
2019-03-06T17:22:13.147Z,627.97
2019-03-06T17:24:21.155Z,422.37
2019-03-06T17:26:28.995Z,518.07
2019-03-06T17:28:36.407Z,354.50
2019-03-06T17:30:44.011Z,233.50
2019-03-06T17:33:03.943Z,272.10
2019-03-06T17:35:11.477Z,386.63
2019-03-06T17:37:19.066Z,96.23
2019-03-06T17:39:26.574Z,157.87
2019-03-06T17:41:33.993Z,61.13
2019-03-06T17:43:41.377Z,30.67
2019-03-06T17:45:49.801Z,32.63
2019-03-06T17:47:57.698Z,39.37
2019-03-06T17:50:06.483Z,35.80
2019-03-06T17:52:14.220Z,36.57
2019-03-06T17:54:21.929Z,38.17
2019-03-06T17:56:31.326Z,32.33
2019-03-06T17:58:38.917Z,34.87
2019-03-06T18:00:47.978Z,31.70
2019-03-06T18:02:55.657Z,32.33
2019-03-06T18:05:03.217Z,33.97
2019-03-06T18:07:11.617Z,37.27
2019-03-06T18:09:19.285Z,33.10
2019-03-06T18:11:26.897Z,30.33
2019-03-06T18:13:34.197Z,39.73
2019-03-06T18:15:44.338Z,30.67
2019-03-06T18:17:51.238Z,34.67
2019-03-06T18:20:00.397Z,35.27
2019-03-06T18:22:09.084Z,30.37
2019-03-06T18:24:16.983Z,33.80
2019-03-06T18:26:24.594Z,33.00
2019-03-06T18:28:32.823Z,38.70
2019-03-06T18:30:40.664Z,35.47
2019-03-06T18:32:49.295Z,28.70
2019-03-06T18:34:56.554Z,39.00
2019-03-06T18:37:03.823Z,33.03
2019-03-06T18:39:12.851Z,33.73
2019-03-06T18:41:20.233Z,28.43
2019-03-06T18:43:27.907Z,37.33
2019-03-06T18:45:37.191Z,37.93
2019-03-06T18:47:44.553Z,36.00
2019-03-06T18:49:52.033Z,30.10
2019-03-06T18:51:59.451Z,34.67
2019-03-06T18:54:06.926Z,28.40
2019-03-06T18:56:14.428Z,34.73
2019-03-06T18:58:23.122Z,31.87
2019-03-06T19:00:33.751Z,26.67
2019-03-06T19:02:41.612Z,31.07
2019-03-06T19:04:50.495Z,26.13
2019-03-06T19:06:57.815Z,30.23
2019-03-06T19:09:07.539Z,28.67
2019-03-06T19:11:17.215Z,28.93
2019-03-06T19:13:24.977Z,25.30
2019-03-06T19:15:32.277Z,33.80
2019-03-06T19:17:39.856Z,26.10
2019-03-06T19:19:47.880Z,28.33
2019-03-06T19:21:55.970Z,25.67
2019-03-06T19:24:03.805Z,27.23
2019-03-06T19:26:11.266Z,29.87
2019-03-06T19:28:18.779Z,27.03
2019-03-06T19:30:27.495Z,26.93
2019-03-06T19:32:35.503Z,35.43
2019-03-06T19:34:44.206Z,54.93
2019-03-06T19:36:52.006Z,45.67
2019-03-06T19:38:59.948Z,38.93
2019-03-06T19:41:09.256Z,39.40
2019-03-06T19:43:17.838Z,34.27
2019-03-06T19:45:26.565Z,37.87
2019-03-06T19:47:34.429Z,37.53
2019-03-06T19:49:42.199Z,31.83
2019-03-06T19:51:52.428Z,31.37
2019-03-06T19:54:20.658Z,29.80
2019-03-06T19:56:29.039Z,38.03
2019-03-06T19:58:36.425Z,26.77
2019-03-06T20:00:45.228Z,29.20
2019-03-06T20:02:53.811Z,23.47
2019-03-06T20:05:01.232Z,25.53
2019-03-06T20:07:09.038Z,26.47
2019-03-06T20:09:27.621Z,34.37
2019-03-06T20:11:34.998Z,30.50
2019-03-06T20:13:42.778Z,30.90
2019-03-06T20:15:50.308Z,30.30
2019-03-06T20:17:59.199Z,30.07
2019-03-06T20:20:11.618Z,28.17
2019-03-06T20:22:22.766Z,27.73
2019-03-06T20:24:29.978Z,30.17
2019-03-06T20:26:37.971Z,29.13
2019-03-06T20:28:46.955Z,35.53
2019-03-06T20:30:54.674Z,34.27
2019-03-06T20:33:03.406Z,32.13
2019-03-06T20:35:11.006Z,43.20
2019-03-06T20:37:18.549Z,35.20
2019-03-06T20:39:26.428Z,40.10
2019-03-06T20:41:33.832Z,37.60
2019-03-06T20:44:04.273Z,35.80
2019-03-06T20:46:12.729Z,34.67
2019-03-06T20:48:20.592Z,37.63
2019-03-06T20:50:28.098Z,34.87
2019-03-06T20:52:36.099Z,35.20
2019-03-06T20:54:43.452Z,31.13
2019-03-06T20:56:50.861Z,31.90
2019-03-06T20:58:59.813Z,30.73
2019-03-06T21:01:08.238Z,30.83
2019-03-06T21:03:16.062Z,34.23
2019-03-06T21:05:23.809Z,30.17
2019-03-06T21:07:31.057Z,31.47
2019-03-06T21:09:38.474Z,32.13
2019-03-06T21:11:45.995Z,32.83
2019-03-06T21:13:53.442Z,37.27
2019-03-06T21:16:01.726Z,45.13
2019-03-06T21:18:11.184Z,39.87
2019-03-06T21:20:26.739Z,36.97
2019-03-06T21:22:34.145Z,31.37
2019-03-06T21:24:41.786Z,34.37
2019-03-06T21:26:49.264Z,36.93
2019-03-06T21:28:56.987Z,43.07
2019-03-06T21:31:04.438Z,38.10
2019-03-06T21:33:12.074Z,35.10
2019-03-06T21:35:19.632Z,40.70
2019-03-06T21:37:27.074Z,34.00
2019-03-06T21:39:46.442Z,37.70
2019-03-06T21:42:14.205Z,44.50
2019-03-06T21:44:21.897Z,42.10
2019-03-06T21:46:30.000Z,39.07
2019-03-06T21:48:37.475Z,34.60
2019-03-06T21:50:44.916Z,33.67
2019-03-06T21:52:52.488Z,37.43
2019-03-06T21:55:02.664Z,38.40
2019-03-06T21:57:15.493Z,35.90
2019-03-06T21:59:23.588Z,45.47
2019-03-06T22:01:31.028Z,42.10
2019-03-06T22:03:38.562Z,38.53
2019-03-06T22:05:45.740Z,37.80
2019-03-06T22:07:53.331Z,35.83
2019-03-06T22:10:00.585Z,37.73
2019-03-06T22:12:09.422Z,33.03
2019-03-06T22:14:16.869Z,37.90
2019-03-06T22:16:25.061Z,32.90
2019-03-06T22:18:33.043Z,37.70
2019-03-06T22:20:40.317Z,31.07
2019-03-06T22:22:47.359Z,34.17
2019-03-06T22:24:55.216Z,33.67
2019-03-06T22:27:02.433Z,34.43
2019-03-06T22:29:12.627Z,35.23
2019-03-06T22:31:20.856Z,35.97
2019-03-06T22:33:27.680Z,33.17
2019-03-06T22:35:34.556Z,33.00
2019-03-06T22:37:42.255Z,33.20
2019-03-06T22:39:50.839Z,29.77
2019-03-06T22:41:57.933Z,30.30
2019-03-06T22:44:04.981Z,33.83
2019-03-06T22:46:12.279Z,30.90
2019-03-06T22:48:19.334Z,31.00
2019-03-06T22:50:26.190Z,36.63
2019-03-06T22:52:33.384Z,39.13
2019-03-06T22:54:40.489Z,28.67
2019-03-06T22:56:47.510Z,28.00
2019-03-06T22:58:54.623Z,34.27
2019-03-06T23:01:06.048Z,31.43
2019-03-06T23:03:15.267Z,35.00
2019-03-06T23:05:22.317Z,28.23
2019-03-06T23:07:29.273Z,34.13
2019-03-06T23:09:37.165Z,32.77
2019-03-06T23:11:44.891Z,33.50
2019-03-06T23:13:51.930Z,28.50
2019-03-06T23:15:59.218Z,33.97
2019-03-06T23:18:06.791Z,29.47
2019-03-06T23:20:15.552Z,29.53
2019-03-06T23:22:23.604Z,26.03
2019-03-06T23:24:30.873Z,31.17
2019-03-06T23:26:42.701Z,27.17
2019-03-06T23:28:46.407Z,28.90
2019-03-06T23:30:53.516Z,29.63
2019-03-06T23:33:00.830Z,29.33
